sensor_id;sensor_type;location;lat;lon;timestamp;temperature;humidity
26107;DHT22;13866;50.748;12.630;2023-04-24T00:00:50;11.20;99.90
26107;DHT22;13866;50.748;12.630;2023-04-24T00:03:16;11.20;99.90
26107;DHT22;13866;50.748;12.630;2023-04-24T00:05:42;11.10;99.90
26107;DHT22;13866;50.748;12.630;2023-04-24T00:08:08;11.10;99.90
26107;DHT22;13866;50.748;12.630;2023-04-24T00:10:33;11.10;99.90
26107;DHT22;13866;50.748;12.630;2023-04-24T00:12:59;11.10;99.90
26107;DHT22;13866;50.748;12.630;2023-04-24T00:15:24;11.10;99.90
26107;DHT22;13866;50.748;12.630;2023-04-24T00:17:50;11.10;99.90
26107;DHT22;13866;50.748;12.630;2023-04-24T00:20:15;11.10;99.90
26107;DHT22;13866;50.748;12.630;2023-04-24T00:22:41;11.10;99.90
26107;DHT22;13866;50.748;12.630;2023-04-24T00:25:06;11.10;99.90
26107;DHT22;13866;50.748;12.630;2023-04-24T00:27:32;11.10;99.90
26107;DHT22;13866;50.748;12.630;2023-04-24T00:29:57;11.00;99.90
26107;DHT22;13866;50.748;12.630;2023-04-24T00:32:23;11.00;99.90
26107;DHT22;13866;50.748;12.630;2023-04-24T00:34:48;11.00;99.90
26107;DHT22;13866;50.748;12.630;2023-04-24T00:37:14;10.90;99.90
26107;DHT22;13866;50.748;12.630;2023-04-24T00:39:39;11.00;99.90
26107;DHT22;13866;50.748;12.630;2023-04-24T00:42:05;10.90;99.90
26107;DHT22;13866;50.748;12.630;2023-04-24T00:44:32;10.90;99.90
26107;DHT22;13866;50.748;12.630;2023-04-24T00:46:59;10.90;99.90
26107;DHT22;13866;50.748;12.630;2023-04-24T00:49:24;10.90;99.90
26107;DHT22;13866;50.748;12.630;2023-04-24T00:51:50;10.90;99.90
26107;DHT22;13866;50.748;12.630;2023-04-24T00:54:16;10.90;99.90
26107;DHT22;13866;50.748;12.630;2023-04-24T00:56:43;10.80;99.90
26107;DHT22;13866;50.748;12.630;2023-04-24T00:59:09;10.80;99.90
26107;DHT22;13866;50.748;12.630;2023-04-24T01:01:35;10.80;99.90
26107;DHT22;13866;50.748;12.630;2023-04-24T01:04:01;10.80;99.90
26107;DHT22;13866;50.748;12.630;2023-04-24T01:06:28;10.80;99.90
26107;DHT22;13866;50.748;12.630;2023-04-24T01:08:57;10.70;99.90
26107;DHT22;13866;50.748;12.630;2023-04-24T01:11:24;10.80;99.90
26107;DHT22;13866;50.748;12.630;2023-04-24T01:13:49;10.80;99.90
26107;DHT22;13866;50.748;12.630;2023-04-24T01:16:15;10.80;99.90
26107;DHT22;13866;50.748;12.630;2023-04-24T01:18:43;10.80;99.90
26107;DHT22;13866;50.748;12.630;2023-04-24T01:21:08;10.80;99.90
26107;DHT22;13866;50.748;12.630;2023-04-24T01:23:34;10.80;99.90
26107;DHT22;13866;50.748;12.630;2023-04-24T01:26:00;10.90;99.90
26107;DHT22;13866;50.748;12.630;2023-04-24T01:28:25;10.90;99.90
26107;DHT22;13866;50.748;12.630;2023-04-24T01:30:51;10.80;99.90
26107;DHT22;13866;50.748;12.630;2023-04-24T01:33:18;10.90;99.90
26107;DHT22;13866;50.748;12.630;2023-04-24T01:35:43;10.90;99.90
26107;DHT22;13866;50.748;12.630;2023-04-24T01:38:09;10.90;99.90
26107;DHT22;13866;50.748;12.630;2023-04-24T01:40:35;10.90;99.90
26107;DHT22;13866;50.748;12.630;2023-04-24T01:43:00;10.90;99.90
26107;DHT22;13866;50.748;12.630;2023-04-24T01:45:26;10.90;99.90
26107;DHT22;13866;50.748;12.630;2023-04-24T01:47:52;10.80;99.90
26107;DHT22;13866;50.748;12.630;2023-04-24T01:50:18;10.80;99.90
26107;DHT22;13866;50.748;12.630;2023-04-24T01:52:44;10.90;99.90
26107;DHT22;13866;50.748;12.630;2023-04-24T01:55:10;10.90;99.90
26107;DHT22;13866;50.748;12.630;2023-04-24T01:57:36;10.90;99.90
26107;DHT22;13866;50.748;12.630;2023-04-24T02:00:02;10.80;99.90
26107;DHT22;13866;50.748;12.630;2023-04-24T02:02:29;10.80;99.90
26107;DHT22;13866;50.748;12.630;2023-04-24T02:04:56;10.80;99.90
26107;DHT22;13866;50.748;12.630;2023-04-24T02:07:22;10.70;99.90
26107;DHT22;13866;50.748;12.630;2023-04-24T02:09:47;10.60;99.90
26107;DHT22;13866;50.748;12.630;2023-04-24T02:12:14;10.60;99.90
26107;DHT22;13866;50.748;12.630;2023-04-24T02:14:40;10.60;99.90
26107;DHT22;13866;50.748;12.630;2023-04-24T02:17:05;10.50;99.90
26107;DHT22;13866;50.748;12.630;2023-04-24T02:19:31;10.50;99.90
26107;DHT22;13866;50.748;12.630;2023-04-24T02:21:57;10.50;99.90
26107;DHT22;13866;50.748;12.630;2023-04-24T02:24:22;10.50;99.90
26107;DHT22;13866;50.748;12.630;2023-04-24T02:26:48;10.50;99.90
26107;DHT22;13866;50.748;12.630;2023-04-24T02:29:13;10.50;99.90
26107;DHT22;13866;50.748;12.630;2023-04-24T02:31:39;10.50;99.90
26107;DHT22;13866;50.748;12.630;2023-04-24T02:34:04;10.50;99.90
26107;DHT22;13866;50.748;12.630;2023-04-24T02:36:30;10.50;99.90
26107;DHT22;13866;50.748;12.630;2023-04-24T02:38:56;10.40;99.90
26107;DHT22;13866;50.748;12.630;2023-04-24T02:41:22;10.40;99.90
26107;DHT22;13866;50.748;12.630;2023-04-24T02:43:47;10.40;99.90
26107;DHT22;13866;50.748;12.630;2023-04-24T02:46:13;10.30;99.90
26107;DHT22;13866;50.748;12.630;2023-04-24T02:48:38;10.40;99.90
26107;DHT22;13866;50.748;12.630;2023-04-24T02:51:04;10.30;99.90
26107;DHT22;13866;50.748;12.630;2023-04-24T02:53:29;10.30;99.90
26107;DHT22;13866;50.748;12.630;2023-04-24T02:55:56;10.30;99.90
26107;DHT22;13866;50.748;12.630;2023-04-24T02:58:22;10.30;99.90
26107;DHT22;13866;50.748;12.630;2023-04-24T03:00:47;10.20;99.90
26107;DHT22;13866;50.748;12.630;2023-04-24T03:03:13;10.20;99.90
26107;DHT22;13866;50.748;12.630;2023-04-24T03:05:39;10.20;99.90
26107;DHT22;13866;50.748;12.630;2023-04-24T03:08:04;10.20;99.90
26107;DHT22;13866;50.748;12.630;2023-04-24T03:10:30;10.20;99.90
26107;DHT22;13866;50.748;12.630;2023-04-24T03:12:55;10.20;99.90
26107;DHT22;13866;50.748;12.630;2023-04-24T03:15:21;10.20;99.90
26107;DHT22;13866;50.748;12.630;2023-04-24T03:17:47;10.20;99.90
26107;DHT22;13866;50.748;12.630;2023-04-24T03:20:13;10.30;99.90
26107;DHT22;13866;50.748;12.630;2023-04-24T03:22:38;10.30;99.90
26107;DHT22;13866;50.748;12.630;2023-04-24T03:25:04;10.30;99.90
26107;DHT22;13866;50.748;12.630;2023-04-24T03:27:30;10.30;99.90
26107;DHT22;13866;50.748;12.630;2023-04-24T03:29:56;10.20;99.90
26107;DHT22;13866;50.748;12.630;2023-04-24T03:32:22;10.30;99.90
26107;DHT22;13866;50.748;12.630;2023-04-24T03:34:48;10.30;99.90
26107;DHT22;13866;50.748;12.630;2023-04-24T03:37:14;10.30;99.90
26107;DHT22;13866;50.748;12.630;2023-04-24T03:39:39;10.30;99.90
26107;DHT22;13866;50.748;12.630;2023-04-24T03:42:05;10.30;99.90
26107;DHT22;13866;50.748;12.630;2023-04-24T03:44:30;10.30;99.90
26107;DHT22;13866;50.748;12.630;2023-04-24T03:46:57;10.30;99.90
26107;DHT22;13866;50.748;12.630;2023-04-24T03:49:22;10.30;99.90
26107;DHT22;13866;50.748;12.630;2023-04-24T03:51:48;10.30;99.90
26107;DHT22;13866;50.748;12.630;2023-04-24T03:54:13;10.20;99.90
26107;DHT22;13866;50.748;12.630;2023-04-24T03:56:39;10.20;99.90
26107;DHT22;13866;50.748;12.630;2023-04-24T03:59:05;10.20;99.90
26107;DHT22;13866;50.748;12.630;2023-04-24T04:01:49;10.20;99.90
26107;DHT22;13866;50.748;12.630;2023-04-24T04:04:23;10.10;99.90
26107;DHT22;13866;50.748;12.630;2023-04-24T04:06:49;10.20;99.90
26107;DHT22;13866;50.748;12.630;2023-04-24T04:09:14;10.20;99.90
26107;DHT22;13866;50.748;12.630;2023-04-24T04:11:46;10.20;99.90
26107;DHT22;13866;50.748;12.630;2023-04-24T04:14:12;10.20;99.90
26107;DHT22;13866;50.748;12.630;2023-04-24T04:16:37;10.20;99.90
26107;DHT22;13866;50.748;12.630;2023-04-24T04:19:03;10.20;99.90
26107;DHT22;13866;50.748;12.630;2023-04-24T04:21:29;10.20;99.90
26107;DHT22;13866;50.748;12.630;2023-04-24T04:23:54;10.20;99.90
26107;DHT22;13866;50.748;12.630;2023-04-24T04:26:20;10.30;99.90
26107;DHT22;13866;50.748;12.630;2023-04-24T04:28:46;10.30;99.90
26107;DHT22;13866;50.748;12.630;2023-04-24T04:31:13;10.30;99.90
26107;DHT22;13866;50.748;12.630;2023-04-24T04:33:38;10.20;99.90
26107;DHT22;13866;50.748;12.630;2023-04-24T04:36:04;10.20;99.90
26107;DHT22;13866;50.748;12.630;2023-04-24T04:38:30;10.20;99.90
26107;DHT22;13866;50.748;12.630;2023-04-24T04:40:56;10.20;99.90
26107;DHT22;13866;50.748;12.630;2023-04-24T04:43:23;10.20;99.90
26107;DHT22;13866;50.748;12.630;2023-04-24T04:45:49;10.30;99.90
26107;DHT22;13866;50.748;12.630;2023-04-24T04:48:16;10.30;99.90
26107;DHT22;13866;50.748;12.630;2023-04-24T04:50:45;10.30;99.90
26107;DHT22;13866;50.748;12.630;2023-04-24T04:53:11;10.30;99.90
26107;DHT22;13866;50.748;12.630;2023-04-24T04:55:37;10.30;99.90
26107;DHT22;13866;50.748;12.630;2023-04-24T04:58:03;10.30;99.90
26107;DHT22;13866;50.748;12.630;2023-04-24T05:00:28;10.30;99.90
26107;DHT22;13866;50.748;12.630;2023-04-24T05:03:11;10.30;99.90
26107;DHT22;13866;50.748;12.630;2023-04-24T05:05:49;10.30;99.90
26107;DHT22;13866;50.748;12.630;2023-04-24T05:08:14;10.30;99.90
26107;DHT22;13866;50.748;12.630;2023-04-24T05:10:40;10.30;99.90
26107;DHT22;13866;50.748;12.630;2023-04-24T05:13:05;10.30;99.90
26107;DHT22;13866;50.748;12.630;2023-04-24T05:15:31;10.30;99.90
26107;DHT22;13866;50.748;12.630;2023-04-24T05:17:56;10.30;99.90
26107;DHT22;13866;50.748;12.630;2023-04-24T05:20:22;10.40;99.90
26107;DHT22;13866;50.748;12.630;2023-04-24T05:22:47;10.40;99.90
26107;DHT22;13866;50.748;12.630;2023-04-24T05:25:13;10.50;99.90
26107;DHT22;13866;50.748;12.630;2023-04-24T05:27:38;10.50;99.90
26107;DHT22;13866;50.748;12.630;2023-04-24T05:30:05;10.50;99.90
26107;DHT22;13866;50.748;12.630;2023-04-24T05:32:42;10.60;99.90
26107;DHT22;13866;50.748;12.630;2023-04-24T05:35:08;10.60;99.90
26107;DHT22;13866;50.748;12.630;2023-04-24T05:37:33;10.60;99.90
26107;DHT22;13866;50.748;12.630;2023-04-24T05:39:59;10.70;99.90
26107;DHT22;13866;50.748;12.630;2023-04-24T05:42:24;10.70;99.90
26107;DHT22;13866;50.748;12.630;2023-04-24T05:44:56;10.80;99.90
26107;DHT22;13866;50.748;12.630;2023-04-24T05:47:21;10.80;99.90
26107;DHT22;13866;50.748;12.630;2023-04-24T05:49:47;10.90;99.90
26107;DHT22;13866;50.748;12.630;2023-04-24T05:52:13;10.90;99.90
26107;DHT22;13866;50.748;12.630;2023-04-24T05:54:39;10.90;99.90
26107;DHT22;13866;50.748;12.630;2023-04-24T05:57:04;10.90;99.90
26107;DHT22;13866;50.748;12.630;2023-04-24T05:59:33;10.90;99.90
26107;DHT22;13866;50.748;12.630;2023-04-24T06:01:59;11.00;99.90
26107;DHT22;13866;50.748;12.630;2023-04-24T06:04:25;10.90;99.90
26107;DHT22;13866;50.748;12.630;2023-04-24T06:07:05;10.90;99.90
26107;DHT22;13866;50.748;12.630;2023-04-24T06:09:31;11.00;99.90
26107;DHT22;13866;50.748;12.630;2023-04-24T06:11:57;10.90;99.90
26107;DHT22;13866;50.748;12.630;2023-04-24T06:14:23;10.90;99.90
26107;DHT22;13866;50.748;12.630;2023-04-24T06:16:49;11.00;99.90
26107;DHT22;13866;50.748;12.630;2023-04-24T06:19:14;11.00;99.90
26107;DHT22;13866;50.748;12.630;2023-04-24T06:21:40;11.00;99.90
26107;DHT22;13866;50.748;12.630;2023-04-24T06:24:05;11.00;99.90
26107;DHT22;13866;50.748;12.630;2023-04-24T06:26:31;11.00;99.90
26107;DHT22;13866;50.748;12.630;2023-04-24T06:28:57;11.00;99.90
26107;DHT22;13866;50.748;12.630;2023-04-24T06:31:24;11.00;99.90
26107;DHT22;13866;50.748;12.630;2023-04-24T06:33:50;11.00;99.90
26107;DHT22;13866;50.748;12.630;2023-04-24T06:36:15;11.00;99.90
26107;DHT22;13866;50.748;12.630;2023-04-24T06:38:41;11.00;99.90
26107;DHT22;13866;50.748;12.630;2023-04-24T06:41:07;11.10;99.90
26107;DHT22;13866;50.748;12.630;2023-04-24T06:43:33;11.10;99.90
26107;DHT22;13866;50.748;12.630;2023-04-24T06:45:59;11.10;99.90
26107;DHT22;13866;50.748;12.630;2023-04-24T06:48:25;11.20;99.90
26107;DHT22;13866;50.748;12.630;2023-04-24T06:50:51;11.20;99.90
26107;DHT22;13866;50.748;12.630;2023-04-24T06:53:17;11.20;99.90
26107;DHT22;13866;50.748;12.630;2023-04-24T06:55:42;11.20;99.90
26107;DHT22;13866;50.748;12.630;2023-04-24T06:58:10;11.30;99.90
26107;DHT22;13866;50.748;12.630;2023-04-24T07:00:36;11.20;99.90
26107;DHT22;13866;50.748;12.630;2023-04-24T07:03:01;11.20;99.90
26107;DHT22;13866;50.748;12.630;2023-04-24T07:05:27;11.20;99.90
26107;DHT22;13866;50.748;12.630;2023-04-24T07:07:53;11.30;99.90
26107;DHT22;13866;50.748;12.630;2023-04-24T07:10:18;11.30;99.90
26107;DHT22;13866;50.748;12.630;2023-04-24T07:12:45;11.30;99.90
26107;DHT22;13866;50.748;12.630;2023-04-24T07:15:11;11.20;99.90
26107;DHT22;13866;50.748;12.630;2023-04-24T07:17:37;11.30;99.90
26107;DHT22;13866;50.748;12.630;2023-04-24T07:20:04;11.30;99.90
26107;DHT22;13866;50.748;12.630;2023-04-24T07:22:30;11.40;99.90
26107;DHT22;13866;50.748;12.630;2023-04-24T07:24:56;11.50;99.90
26107;DHT22;13866;50.748;12.630;2023-04-24T07:27:21;11.60;99.90
26107;DHT22;13866;50.748;12.630;2023-04-24T07:29:47;11.60;99.90
26107;DHT22;13866;50.748;12.630;2023-04-24T07:32:12;11.60;99.90
26107;DHT22;13866;50.748;12.630;2023-04-24T07:34:38;11.70;99.90
26107;DHT22;13866;50.748;12.630;2023-04-24T07:37:03;11.90;99.90
26107;DHT22;13866;50.748;12.630;2023-04-24T07:39:29;11.90;99.90
26107;DHT22;13866;50.748;12.630;2023-04-24T07:41:55;12.10;99.90
26107;DHT22;13866;50.748;12.630;2023-04-24T07:44:20;12.10;99.90
26107;DHT22;13866;50.748;12.630;2023-04-24T07:46:45;12.10;99.90
26107;DHT22;13866;50.748;12.630;2023-04-24T07:49:11;12.10;99.90
26107;DHT22;13866;50.748;12.630;2023-04-24T07:51:37;12.20;99.90
26107;DHT22;13866;50.748;12.630;2023-04-24T07:54:04;12.30;99.90
26107;DHT22;13866;50.748;12.630;2023-04-24T07:56:31;12.20;99.90
26107;DHT22;13866;50.748;12.630;2023-04-24T07:58:57;12.30;99.90
26107;DHT22;13866;50.748;12.630;2023-04-24T08:01:22;12.30;99.90
26107;DHT22;13866;50.748;12.630;2023-04-24T08:03:48;12.30;99.90
26107;DHT22;13866;50.748;12.630;2023-04-24T08:06:13;12.50;99.90
26107;DHT22;13866;50.748;12.630;2023-04-24T08:08:39;12.50;99.90
26107;DHT22;13866;50.748;12.630;2023-04-24T08:11:04;12.50;99.90
26107;DHT22;13866;50.748;12.630;2023-04-24T08:13:30;12.50;99.90
26107;DHT22;13866;50.748;12.630;2023-04-24T08:15:56;12.50;99.90
26107;DHT22;13866;50.748;12.630;2023-04-24T08:18:22;12.50;99.90
26107;DHT22;13866;50.748;12.630;2023-04-24T08:20:48;12.60;99.90
26107;DHT22;13866;50.748;12.630;2023-04-24T08:23:13;12.70;99.90
26107;DHT22;13866;50.748;12.630;2023-04-24T08:25:39;12.90;99.90
26107;DHT22;13866;50.748;12.630;2023-04-24T08:28:06;13.00;99.90
26107;DHT22;13866;50.748;12.630;2023-04-24T08:30:31;13.00;99.90
26107;DHT22;13866;50.748;12.630;2023-04-24T08:32:57;12.90;99.90
26107;DHT22;13866;50.748;12.630;2023-04-24T08:35:22;12.90;99.90
26107;DHT22;13866;50.748;12.630;2023-04-24T08:37:48;13.10;99.90
26107;DHT22;13866;50.748;12.630;2023-04-24T08:40:15;13.50;99.90
26107;DHT22;13866;50.748;12.630;2023-04-24T08:42:44;13.90;99.90
26107;DHT22;13866;50.748;12.630;2023-04-24T08:45:12;13.80;99.90
26107;DHT22;13866;50.748;12.630;2023-04-24T08:47:39;13.50;99.90
26107;DHT22;13866;50.748;12.630;2023-04-24T08:50:05;13.60;99.90
26107;DHT22;13866;50.748;12.630;2023-04-24T08:52:32;13.50;99.90
26107;DHT22;13866;50.748;12.630;2023-04-24T08:54:59;13.30;99.90
26107;DHT22;13866;50.748;12.630;2023-04-24T08:57:25;13.30;99.90
26107;DHT22;13866;50.748;12.630;2023-04-24T08:59:52;13.30;99.90
26107;DHT22;13866;50.748;12.630;2023-04-24T09:02:18;13.30;99.90
26107;DHT22;13866;50.748;12.630;2023-04-24T09:04:44;13.20;99.90
26107;DHT22;13866;50.748;12.630;2023-04-24T09:07:12;13.10;99.90
26107;DHT22;13866;50.748;12.630;2023-04-24T09:09:40;13.00;99.90
26107;DHT22;13866;50.748;12.630;2023-04-24T09:12:06;13.10;99.90
26107;DHT22;13866;50.748;12.630;2023-04-24T09:14:34;13.10;99.90
26107;DHT22;13866;50.748;12.630;2023-04-24T09:17:01;13.10;99.90
26107;DHT22;13866;50.748;12.630;2023-04-24T09:19:27;13.30;99.90
26107;DHT22;13866;50.748;12.630;2023-04-24T09:21:53;13.40;99.90
26107;DHT22;13866;50.748;12.630;2023-04-24T09:24:21;13.40;99.90
26107;DHT22;13866;50.748;12.630;2023-04-24T09:26:58;13.50;99.90
26107;DHT22;13866;50.748;12.630;2023-04-24T09:29:24;13.50;99.90
26107;DHT22;13866;50.748;12.630;2023-04-24T09:31:50;13.60;99.90
26107;DHT22;13866;50.748;12.630;2023-04-24T09:34:24;13.60;99.90
26107;DHT22;13866;50.748;12.630;2023-04-24T09:36:51;14.00;99.90
26107;DHT22;13866;50.748;12.630;2023-04-24T09:39:17;14.00;99.90
26107;DHT22;13866;50.748;12.630;2023-04-24T09:41:54;14.10;99.90
26107;DHT22;13866;50.748;12.630;2023-04-24T09:44:23;14.40;99.90
26107;DHT22;13866;50.748;12.630;2023-04-24T09:46:51;14.80;99.90
26107;DHT22;13866;50.748;12.630;2023-04-24T09:49:27;14.50;99.90
26107;DHT22;13866;50.748;12.630;2023-04-24T09:52:05;14.50;99.90
26107;DHT22;13866;50.748;12.630;2023-04-24T09:54:30;15.00;99.90
26107;DHT22;13866;50.748;12.630;2023-04-24T09:56:56;15.00;99.90
26107;DHT22;13866;50.748;12.630;2023-04-24T09:59:22;14.70;99.90
26107;DHT22;13866;50.748;12.630;2023-04-24T10:01:48;14.50;99.90
26107;DHT22;13866;50.748;12.630;2023-04-24T10:04:28;14.50;99.90
26107;DHT22;13866;50.748;12.630;2023-04-24T10:06:56;14.20;99.90
26107;DHT22;13866;50.748;12.630;2023-04-24T10:09:26;14.10;99.90
26107;DHT22;13866;50.748;12.630;2023-04-24T10:11:53;14.10;99.90
26107;DHT22;13866;50.748;12.630;2023-04-24T10:14:20;14.00;99.90
26107;DHT22;13866;50.748;12.630;2023-04-24T10:16:47;14.10;99.90
26107;DHT22;13866;50.748;12.630;2023-04-24T10:19:14;14.10;99.90
26107;DHT22;13866;50.748;12.630;2023-04-24T10:21:41;14.20;99.90
26107;DHT22;13866;50.748;12.630;2023-04-24T10:24:08;13.90;99.90
26107;DHT22;13866;50.748;12.630;2023-04-24T10:26:34;13.60;99.90
26107;DHT22;13866;50.748;12.630;2023-04-24T10:29:00;13.60;99.90
26107;DHT22;13866;50.748;12.630;2023-04-24T10:31:27;13.60;99.90
26107;DHT22;13866;50.748;12.630;2023-04-24T10:33:56;13.60;99.90
26107;DHT22;13866;50.748;12.630;2023-04-24T10:36:24;13.60;99.90
26107;DHT22;13866;50.748;12.630;2023-04-24T10:38:52;13.70;99.90
26107;DHT22;13866;50.748;12.630;2023-04-24T10:41:20;13.70;99.90
26107;DHT22;13866;50.748;12.630;2023-04-24T10:43:48;14.10;99.90
26107;DHT22;13866;50.748;12.630;2023-04-24T10:46:30;14.50;99.90
26107;DHT22;13866;50.748;12.630;2023-04-24T10:48:57;14.60;99.90
26107;DHT22;13866;50.748;12.630;2023-04-24T10:51:24;14.40;99.90
26107;DHT22;13866;50.748;12.630;2023-04-24T10:53:51;14.30;99.90
26107;DHT22;13866;50.748;12.630;2023-04-24T10:56:17;14.30;99.90
26107;DHT22;13866;50.748;12.630;2023-04-24T10:58:45;14.30;99.90
26107;DHT22;13866;50.748;12.630;2023-04-24T11:01:25;14.10;99.90
26107;DHT22;13866;50.748;12.630;2023-04-24T11:03:58;14.10;99.90
26107;DHT22;13866;50.748;12.630;2023-04-24T11:06:37;14.30;99.90
26107;DHT22;13866;50.748;12.630;2023-04-24T11:09:07;14.60;99.90
26107;DHT22;13866;50.748;12.630;2023-04-24T11:11:35;14.70;99.90
26107;DHT22;13866;50.748;12.630;2023-04-24T11:14:06;14.50;99.90
26107;DHT22;13866;50.748;12.630;2023-04-24T11:19:18;14.40;99.90
26107;DHT22;13866;50.748;12.630;2023-04-24T11:24:32;14.60;99.90
26107;DHT22;13866;50.748;12.630;2023-04-24T11:26:58;14.60;99.90
26107;DHT22;13866;50.748;12.630;2023-04-24T11:29:44;14.80;99.90
26107;DHT22;13866;50.748;12.630;2023-04-24T11:35:13;14.70;99.90
26107;DHT22;13866;50.748;12.630;2023-04-24T11:37:42;15.00;99.90
26107;DHT22;13866;50.748;12.630;2023-04-24T11:40:10;14.80;99.90
26107;DHT22;13866;50.748;12.630;2023-04-24T11:42:37;14.90;99.90
26107;DHT22;13866;50.748;12.630;2023-04-24T11:45:11;15.00;99.90
26107;DHT22;13866;50.748;12.630;2023-04-24T11:47:37;15.20;99.90
26107;DHT22;13866;50.748;12.630;2023-04-24T11:50:04;15.30;99.90
26107;DHT22;13866;50.748;12.630;2023-04-24T11:52:31;15.60;99.90
26107;DHT22;13866;50.748;12.630;2023-04-24T11:54:57;16.10;99.90
26107;DHT22;13866;50.748;12.630;2023-04-24T11:57:25;16.10;99.90
26107;DHT22;13866;50.748;12.630;2023-04-24T11:59:54;15.70;99.90
26107;DHT22;13866;50.748;12.630;2023-04-24T12:02:24;15.60;99.90
26107;DHT22;13866;50.748;12.630;2023-04-24T12:04:50;15.50;99.90
26107;DHT22;13866;50.748;12.630;2023-04-24T12:07:15;15.30;99.90
26107;DHT22;13866;50.748;12.630;2023-04-24T12:09:46;15.20;99.90
26107;DHT22;13866;50.748;12.630;2023-04-24T12:12:13;15.30;99.90
26107;DHT22;13866;50.748;12.630;2023-04-24T12:14:55;15.40;99.90
26107;DHT22;13866;50.748;12.630;2023-04-24T12:17:29;15.50;99.90
26107;DHT22;13866;50.748;12.630;2023-04-24T12:20:06;15.20;99.90
26107;DHT22;13866;50.748;12.630;2023-04-24T12:22:55;15.20;99.90
26107;DHT22;13866;50.748;12.630;2023-04-24T12:25:26;15.00;99.90
26107;DHT22;13866;50.748;12.630;2023-04-24T12:30:30;15.60;99.90
26107;DHT22;13866;50.748;12.630;2023-04-24T12:33:00;15.80;99.90
26107;DHT22;13866;50.748;12.630;2023-04-24T12:35:28;15.90;99.90
26107;DHT22;13866;50.748;12.630;2023-04-24T12:37:53;15.90;99.90
26107;DHT22;13866;50.748;12.630;2023-04-24T12:40:20;16.20;99.90
26107;DHT22;13866;50.748;12.630;2023-04-24T12:45:13;15.90;99.90
26107;DHT22;13866;50.748;12.630;2023-04-24T12:47:39;15.70;99.90
26107;DHT22;13866;50.748;12.630;2023-04-24T12:50:09;15.70;99.90
26107;DHT22;13866;50.748;12.630;2023-04-24T12:52:36;15.50;99.90
26107;DHT22;13866;50.748;12.630;2023-04-24T12:55:03;15.40;99.90
26107;DHT22;13866;50.748;12.630;2023-04-24T12:57:30;15.50;99.90
26107;DHT22;13866;50.748;12.630;2023-04-24T12:59:58;15.50;99.90
26107;DHT22;13866;50.748;12.630;2023-04-24T13:02:25;15.40;99.90
26107;DHT22;13866;50.748;12.630;2023-04-24T13:04:51;15.10;99.90
26107;DHT22;13866;50.748;12.630;2023-04-24T13:07:17;14.60;99.90
26107;DHT22;13866;50.748;12.630;2023-04-24T13:09:44;14.40;99.90
26107;DHT22;13866;50.748;12.630;2023-04-24T13:12:10;14.30;99.90
26107;DHT22;13866;50.748;12.630;2023-04-24T13:14:37;14.30;99.90
26107;DHT22;13866;50.748;12.630;2023-04-24T13:17:03;14.20;99.90
26107;DHT22;13866;50.748;12.630;2023-04-24T13:19:29;14.30;99.90
26107;DHT22;13866;50.748;12.630;2023-04-24T13:21:56;14.40;99.90
26107;DHT22;13866;50.748;12.630;2023-04-24T13:24:23;14.70;99.90
26107;DHT22;13866;50.748;12.630;2023-04-24T13:26:52;14.60;99.90
26107;DHT22;13866;50.748;12.630;2023-04-24T13:29:18;14.60;99.90
26107;DHT22;13866;50.748;12.630;2023-04-24T13:31:44;14.80;99.90
26107;DHT22;13866;50.748;12.630;2023-04-24T13:34:09;14.80;99.90
26107;DHT22;13866;50.748;12.630;2023-04-24T13:36:35;14.50;99.90
26107;DHT22;13866;50.748;12.630;2023-04-24T13:39:01;14.30;99.90
26107;DHT22;13866;50.748;12.630;2023-04-24T13:41:26;14.00;99.90
26107;DHT22;13866;50.748;12.630;2023-04-24T13:43:52;13.80;99.90
26107;DHT22;13866;50.748;12.630;2023-04-24T13:46:17;13.70;99.90
26107;DHT22;13866;50.748;12.630;2023-04-24T13:48:43;13.50;99.90
26107;DHT22;13866;50.748;12.630;2023-04-24T13:51:08;13.70;99.90
26107;DHT22;13866;50.748;12.630;2023-04-24T13:53:34;13.90;99.90
26107;DHT22;13866;50.748;12.630;2023-04-24T13:56:03;14.10;99.90
26107;DHT22;13866;50.748;12.630;2023-04-24T13:58:29;14.10;99.90
26107;DHT22;13866;50.748;12.630;2023-04-24T14:00:55;14.00;99.90
26107;DHT22;13866;50.748;12.630;2023-04-24T14:03:20;14.00;99.90
26107;DHT22;13866;50.748;12.630;2023-04-24T14:05:46;13.90;99.90
26107;DHT22;13866;50.748;12.630;2023-04-24T14:08:11;13.70;99.90
26107;DHT22;13866;50.748;12.630;2023-04-24T14:10:37;13.70;99.90
26107;DHT22;13866;50.748;12.630;2023-04-24T14:13:02;13.60;99.90
26107;DHT22;13866;50.748;12.630;2023-04-24T14:15:28;13.70;99.90
26107;DHT22;13866;50.748;12.630;2023-04-24T14:17:53;13.80;99.90
26107;DHT22;13866;50.748;12.630;2023-04-24T14:20:19;13.80;99.90
26107;DHT22;13866;50.748;12.630;2023-04-24T14:22:45;13.60;99.90
26107;DHT22;13866;50.748;12.630;2023-04-24T14:25:10;13.60;99.90
26107;DHT22;13866;50.748;12.630;2023-04-24T14:27:36;13.50;99.90
26107;DHT22;13866;50.748;12.630;2023-04-24T14:30:02;13.50;99.90
26107;DHT22;13866;50.748;12.630;2023-04-24T14:32:28;13.60;99.90
26107;DHT22;13866;50.748;12.630;2023-04-24T14:34:54;13.80;99.90
26107;DHT22;13866;50.748;12.630;2023-04-24T14:37:20;14.20;99.90
26107;DHT22;13866;50.748;12.630;2023-04-24T14:39:45;14.30;99.90
26107;DHT22;13866;50.748;12.630;2023-04-24T14:42:11;14.70;99.90
26107;DHT22;13866;50.748;12.630;2023-04-24T14:44:36;14.80;99.90
26107;DHT22;13866;50.748;12.630;2023-04-24T14:47:24;14.60;99.90
26107;DHT22;13866;50.748;12.630;2023-04-24T14:49:49;14.50;99.90
26107;DHT22;13866;50.748;12.630;2023-04-24T14:52:15;14.30;99.90
26107;DHT22;13866;50.748;12.630;2023-04-24T14:54:41;14.20;99.90
26107;DHT22;13866;50.748;12.630;2023-04-24T14:57:07;14.00;99.90
26107;DHT22;13866;50.748;12.630;2023-04-24T14:59:33;14.00;99.90
26107;DHT22;13866;50.748;12.630;2023-04-24T15:01:58;13.90;99.90
26107;DHT22;13866;50.748;12.630;2023-04-24T15:04:24;14.10;99.90
26107;DHT22;13866;50.748;12.630;2023-04-24T15:06:53;14.50;99.90
26107;DHT22;13866;50.748;12.630;2023-04-24T15:09:20;14.50;99.90
26107;DHT22;13866;50.748;12.630;2023-04-24T15:11:47;14.30;99.90
26107;DHT22;13866;50.748;12.630;2023-04-24T15:14:13;14.10;99.90
26107;DHT22;13866;50.748;12.630;2023-04-24T15:16:38;14.00;99.90
26107;DHT22;13866;50.748;12.630;2023-04-24T15:19:04;14.00;99.90
26107;DHT22;13866;50.748;12.630;2023-04-24T15:21:29;13.90;99.90
26107;DHT22;13866;50.748;12.630;2023-04-24T15:23:55;13.80;99.90
26107;DHT22;13866;50.748;12.630;2023-04-24T15:26:22;13.70;99.90